Time;durP1;ratioP1;P1;durP2;ratioP2;P2;SDS_P1;SDS_P2;PMS_P1;PMS_P2;Temp;Humidity;BMP_temperature;BMP_pressure;BME280_temperature;BME280_humidity;BME280_pressure;Samples;Min_cycle;Max_cycle;Signal;HPM_P1;HPM_P2
2023/05/29 00:00:29;;;;;;;0.10;0.10;;;;;;;12.55;100.00;100958.22;4974499;28;20178;-77
2023/05/29 00:02:54;;;;;;;1.37;1.30;;;;;;;12.58;100.00;100957.59;4974330;28;20232;-76
2023/05/29 00:05:20;;;;;;;0.00;0.00;;;;;;;12.51;100.00;100954.50;4973869;28;20245;-76
2023/05/29 00:07:45;;;;;;;0.30;0.20;;;;;;;12.52;100.00;100962.41;4973900;28;20178;-77
2023/05/29 00:10:11;;;;;;;0.00;0.00;;;;;;;12.63;100.00;100960.22;4973817;28;20209;-76
2023/05/29 00:12:38;;;;;;;0.00;0.00;;;;;;;12.67;100.00;100966.69;4956701;28;20241;-77
2023/05/29 00:15:04;;;;;;;0.00;0.00;;;;;;;12.76;100.00;100966.78;4956846;28;20575;-77
2023/05/29 00:17:33;;;;;;;0.00;0.00;;;;;;;12.79;100.00;100958.72;4973702;28;20174;-77
2023/05/29 00:20:01;;;;;;;0.00;0.00;;;;;;;12.80;100.00;100967.75;4974151;28;20182;-76
2023/05/29 00:22:27;;;;;;;1.13;1.13;;;;;;;12.72;100.00;100963.00;4973856;28;20202;-77
2023/05/29 00:24:52;;;;;;;8.90;6.93;;;;;;;12.74;100.00;100960.78;4974007;28;20632;-76
2023/05/29 00:27:18;;;;;;;0.00;0.00;;;;;;;12.78;100.00;100964.53;4956148;28;20210;-76
2023/05/29 00:29:43;;;;;;;0.47;0.30;;;;;;;12.78;100.00;100975.50;4956517;28;20233;-76
2023/05/29 00:32:09;;;;;;;0.10;0.10;;;;;;;12.68;100.00;100967.50;4973543;28;20295;-77
2023/05/29 00:34:35;;;;;;;0.00;0.00;;;;;;;12.72;100.00;100983.00;4973914;28;20738;-76
2023/05/29 00:37:01;;;;;;;0.30;0.20;;;;;;;12.71;100.00;100970.44;4955863;28;20265;-77
2023/05/29 00:39:26;;;;;;;0.00;0.00;;;;;;;12.67;100.00;100976.84;4973444;28;20178;-76
2023/05/29 00:41:52;;;;;;;0.00;0.00;;;;;;;12.49;100.00;100979.47;4973634;28;20221;-76
2023/05/29 00:44:21;;;;;;;0.00;0.00;;;;;;;12.43;100.00;100983.44;4973045;28;20266;-77
2023/05/29 00:46:49;;;;;;;0.00;0.00;;;;;;;12.56;100.00;100990.00;4973674;28;20185;-77
2023/05/29 00:49:16;;;;;;;0.63;0.63;;;;;;;12.62;100.00;100990.69;4973339;28;20184;-76
2023/05/29 00:51:43;;;;;;;0.53;0.20;;;;;;;12.69;100.00;100999.28;4973735;28;20269;-77
2023/05/29 00:54:12;;;;;;;0.00;0.00;;;;;;;12.74;100.00;101008.22;4956143;28;20188;-76
2023/05/29 00:56:44;;;;;;;0.30;0.30;;;;;;;12.76;100.00;100997.75;4973434;28;20181;-77
2023/05/29 00:59:11;;;;;;;2.53;1.33;;;;;;;12.63;99.92;100993.13;4973033;28;20182;-77
2023/05/29 01:01:37;;;;;;;0.20;0.20;;;;;;;12.70;99.73;100987.19;4955979;28;20465;-76
2023/05/29 01:04:06;;;;;;;0.37;0.20;;;;;;;12.35;99.49;100995.16;4973172;28;20174;-76
2023/05/29 01:06:32;;;;;;;0.00;0.00;;;;;;;12.23;100.00;101005.84;4973234;28;20182;-77
2023/05/29 01:08:57;;;;;;;0.63;0.63;;;;;;;12.11;100.00;101003.63;4972961;28;20224;-76
2023/05/29 01:11:45;;;;;;;0.00;0.00;;;;;;;12.18;100.00;101005.97;4973325;28;20312;-77
2023/05/29 01:14:29;;;;;;;0.00;0.00;;;;;;;12.32;100.00;101009.50;4973054;28;20522;-77
2023/05/29 01:17:12;;;;;;;2.07;1.67;;;;;;;12.39;100.00;101012.59;4972951;28;20186;-77
2023/05/29 01:20:05;;;;;;;0.17;0.17;;;;;;;12.40;100.00;101000.50;4973186;28;20636;-77
2023/05/29 01:22:58;;;;;;;0.00;0.00;;;;;;;12.37;100.00;101003.88;4973049;28;20218;-77
2023/05/29 01:25:50;;;;;;;0.00;0.00;;;;;;;12.29;100.00;101003.78;4972991;28;20221;-74
2023/05/29 01:28:19;;;;;;;0.23;0.23;;;;;;;12.31;100.00;101001.59;4972501;28;20209;-74
2023/05/29 01:30:45;;;;;;;0.00;0.00;;;;;;;12.01;100.00;101014.03;4972718;28;20241;-77
2023/05/29 01:33:10;;;;;;;0.00;0.00;;;;;;;12.05;100.00;101015.03;4972509;28;20241;-77
2023/05/29 01:35:36;;;;;;;0.07;0.07;;;;;;;12.04;100.00;101025.19;4972685;28;20181;-76
2023/05/29 01:38:01;;;;;;;0.20;0.20;;;;;;;11.98;100.00;101007.22;4972233;28;20193;-75
2023/05/29 01:40:27;;;;;;;0.00;0.00;;;;;;;11.86;100.00;101007.75;4972673;28;20189;-77
2023/05/29 01:42:52;;;;;;;0.00;0.00;;;;;;;11.91;100.00;101018.59;4972493;28;20197;-76
2023/05/29 01:45:18;;;;;;;0.00;0.00;;;;;;;11.91;100.00;101028.75;4972429;28;20313;-77
2023/05/29 01:47:43;;;;;;;0.00;0.00;;;;;;;11.93;100.00;101028.44;4972049;28;20182;-76
2023/05/29 01:50:13;;;;;;;0.13;0.13;;;;;;;11.93;100.00;101020.22;4972170;28;20220;-76
2023/05/29 01:52:38;;;;;;;0.00;0.00;;;;;;;11.87;100.00;101035.94;4972495;28;20580;-77
2023/05/29 01:55:04;;;;;;;0.30;0.30;;;;;;;11.78;100.00;101033.06;4971622;28;20193;-76
2023/05/29 01:57:29;;;;;;;0.00;0.00;;;;;;;11.65;100.00;101033.88;4971641;28;20186;-77
2023/05/29 01:59:56;;;;;;;0.93;0.30;;;;;;;11.58;100.00;101030.75;4972280;28;20265;-77
2023/05/29 02:02:22;;;;;;;0.00;0.00;;;;;;;11.59;100.00;101035.13;4972211;28;20214;-77
2023/05/29 02:04:48;;;;;;;0.00;0.00;;;;;;;11.63;100.00;101034.19;4972375;28;20595;-76
2023/05/29 02:07:15;;;;;;;0.00;0.00;;;;;;;11.57;100.00;101035.41;4971785;28;20217;-77
2023/05/29 02:09:40;;;;;;;0.00;0.00;;;;;;;11.47;100.00;101043.81;4972278;28;20232;-77
2023/05/29 02:12:07;;;;;;;0.00;0.00;;;;;;;11.44;100.00;101038.13;4954763;28;20692;-76
2023/05/29 02:14:32;;;;;;;0.00;0.00;;;;;;;11.53;100.00;101044.50;4972140;28;20180;-77
2023/05/29 02:16:58;;;;;;;0.00;0.00;;;;;;;11.56;100.00;101041.97;4972139;28;20190;-76
2023/05/29 02:19:25;;;;;;;0.00;0.00;;;;;;;11.57;100.00;101042.78;4971769;28;20652;-77
2023/05/29 02:21:50;;;;;;;0.00;0.00;;;;;;;11.60;100.00;101043.00;4972380;28;20200;-76
2023/05/29 02:24:15;;;;;;;0.43;0.43;;;;;;;11.30;99.60;101043.59;4972006;28;20182;-75
2023/05/29 02:26:42;;;;;;;0.00;0.00;;;;;;;11.33;100.00;101046.53;4972015;28;20191;-77
2023/05/29 02:29:07;;;;;;;0.13;0.13;;;;;;;11.32;100.00;101050.38;4971446;28;20207;-77
2023/05/29 02:31:33;;;;;;;0.00;0.00;;;;;;;11.37;100.00;101065.06;4971678;28;20220;-77
2023/05/29 02:33:58;;;;;;;0.00;0.00;;;;;;;11.30;99.86;101060.81;4972028;28;20179;-77
2023/05/29 02:36:24;;;;;;;0.20;0.20;;;;;;;11.36;99.88;101056.06;4971883;28;20186;-77
2023/05/29 02:38:49;;;;;;;0.00;0.00;;;;;;;11.35;99.18;101059.91;4971458;28;20178;-77
2023/05/29 02:41:15;;;;;;;0.00;0.00;;;;;;;11.41;98.97;101061.41;4971725;28;20182;-77
2023/05/29 02:43:40;;;;;;;0.00;0.00;;;;;;;11.39;98.23;101073.78;4971733;28;20205;-77
2023/05/29 02:46:05;;;;;;;0.00;0.00;;;;;;;11.37;98.21;101062.34;4971830;28;20204;-77
2023/05/29 02:48:31;;;;;;;0.00;0.00;;;;;;;11.32;98.07;101071.44;4971274;28;20174;-76
2023/05/29 02:50:56;;;;;;;0.00;0.00;;;;;;;11.15;98.07;101073.94;4971751;28;20276;-77
2023/05/29 02:53:22;;;;;;;0.00;0.00;;;;;;;11.14;98.49;101075.88;4971753;28;20202;-77
2023/05/29 02:55:48;;;;;;;0.00;0.00;;;;;;;11.10;98.02;101083.03;4971833;28;20192;-76
2023/05/29 02:58:16;;;;;;;0.00;0.00;;;;;;;11.02;98.32;101081.00;4971672;28;20232;-76
2023/05/29 03:00:41;;;;;;;0.00;0.00;;;;;;;10.86;98.65;101077.69;4971635;28;20189;-74
2023/05/29 03:03:06;;;;;;;0.00;0.00;;;;;;;10.83;99.57;101077.47;4971500;28;20202;-76
2023/05/29 03:05:32;;;;;;;0.00;0.00;;;;;;;10.89;99.10;101076.28;4972034;28;20173;-76
2023/05/29 03:07:57;;;;;;;4.17;1.17;;;;;;;10.86;99.58;101076.88;4973814;28;20181;-76
2023/05/29 03:10:22;;;;;;;0.50;0.50;;;;;;;10.89;99.21;101076.28;4975329;28;20236;-76
2023/05/29 03:12:48;;;;;;;11.10;0.73;;;;;;;10.87;99.90;101079.31;4975194;28;20208;-76
2023/05/29 03:15:14;;;;;;;0.00;0.00;;;;;;;10.65;99.62;101074.44;4975072;28;20185;-77
2023/05/29 03:17:39;;;;;;;0.00;0.00;;;;;;;10.59;100.00;101081.09;4957372;28;20234;-77
2023/05/29 03:20:06;;;;;;;0.93;0.30;;;;;;;10.48;100.00;101085.09;4975308;28;20642;-76
2023/05/29 03:22:32;;;;;;;1.80;1.40;;;;;;;10.28;100.00;101083.47;4975072;28;20205;-76
2023/05/29 03:24:57;;;;;;;0.00;0.00;;;;;;;10.25;100.00;101084.03;4975296;28;20265;-76
2023/05/29 03:27:23;;;;;;;6.13;1.20;;;;;;;10.23;100.00;101083.50;4974407;28;20261;-76
2023/05/29 03:29:48;;;;;;;0.73;0.73;;;;;;;10.06;100.00;101089.44;4975065;28;20920;-77
2023/05/29 03:32:14;;;;;;;0.00;0.00;;;;;;;9.88;100.00;101090.19;4974550;28;20217;-76
2023/05/29 03:34:39;;;;;;;1.10;0.93;;;;;;;9.78;100.00;101091.13;4974919;28;20197;-76
2023/05/29 03:37:05;;;;;;;0.00;0.00;;;;;;;9.71;100.00;101089.84;4957414;28;20177;-75
2023/05/29 03:39:31;;;;;;;0.00;0.00;;;;;;;9.73;100.00;101082.19;4974546;28;20652;-74
2023/05/29 03:41:56;;;;;;;7.50;2.20;;;;;;;9.78;100.00;101080.22;4974815;28;20292;-76
2023/05/29 03:44:21;;;;;;;0.77;0.50;;;;;;;9.76;100.00;101084.34;4974616;28;20527;-75
2023/05/29 03:46:46;;;;;;;0.00;0.00;;;;;;;9.69;100.00;101079.25;4974527;28;20189;-76
2023/05/29 03:49:12;;;;;;;0.10;0.10;;;;;;;9.68;100.00;101083.03;4974341;28;20174;-76
2023/05/29 03:51:37;;;;;;;0.00;0.00;;;;;;;9.72;100.00;101084.09;4974465;28;20225;-75
2023/05/29 03:54:03;;;;;;;0.00;0.00;;;;;;;9.77;100.00;101089.50;4957297;28;20232;-75
2023/05/29 03:56:28;;;;;;;0.10;0.10;;;;;;;9.83;100.00;101099.25;4974641;28;20299;-77
2023/05/29 03:58:54;;;;;;;0.73;0.70;;;;;;;9.84;100.00;101097.34;4974225;28;20216;-76
2023/05/29 04:01:20;;;;;;;0.10;0.10;;;;;;;9.89;100.00;101099.19;4974160;28;20174;-75
2023/05/29 04:03:46;;;;;;;0.10;0.10;;;;;;;9.84;100.00;101105.53;4974462;28;20590;-76
2023/05/29 04:06:11;;;;;;;0.17;0.17;;;;;;;9.78;100.00;101107.50;4974333;28;20180;-76
2023/05/29 04:08:36;;;;;;;6.23;0.20;;;;;;;9.71;100.00;101103.50;4973954;28;20209;-76
2023/05/29 04:11:03;;;;;;;0.00;0.00;;;;;;;9.70;100.00;101104.59;4974149;28;20205;-76
2023/05/29 04:13:29;;;;;;;0.13;0.13;;;;;;;9.70;100.00;101110.06;4974188;28;20703;-76
2023/05/29 04:15:54;;;;;;;0.10;0.10;;;;;;;9.68;100.00;101107.59;4974236;28;20174;-76
2023/05/29 04:18:20;;;;;;;4.37;0.63;;;;;;;9.71;100.00;101100.78;4972648;28;20190;-76
2023/05/29 04:20:47;;;;;;;0.37;0.37;;;;;;;9.66;100.00;101114.44;4974116;28;20174;-76
2023/05/29 04:23:12;;;;;;;1.63;1.53;;;;;;;9.67;100.00;101105.16;4974004;28;20198;-76
2023/05/29 04:25:37;;;;;;;0.00;0.00;;;;;;;9.73;100.00;101104.03;4974165;28;20209;-76
2023/05/29 04:28:03;;;;;;;0.73;0.73;;;;;;;9.76;100.00;101115.16;4973409;28;20764;-74
2023/05/29 04:30:29;;;;;;;0.47;0.47;;;;;;;9.76;100.00;101109.69;4956459;28;20210;-76
2023/05/29 04:32:54;;;;;;;0.13;0.13;;;;;;;9.74;100.00;101105.66;4973776;28;20220;-76
2023/05/29 04:35:21;;;;;;;0.00;0.00;;;;;;;9.76;100.00;101109.69;4956680;28;20658;-76
2023/05/29 04:37:47;;;;;;;0.70;0.70;;;;;;;9.79;100.00;101108.31;4973503;28;20565;-76
2023/05/29 04:40:13;;;;;;;0.00;0.00;;;;;;;9.83;100.00;101114.81;4973896;28;20189;-76
2023/05/29 04:42:41;;;;;;;0.30;0.30;;;;;;;9.88;100.00;101113.94;4956461;28;20221;-76
2023/05/29 04:45:09;;;;;;;0.53;0.53;;;;;;;9.92;100.00;101118.53;4956429;28;20193;-76
2023/05/29 04:47:36;;;;;;;0.00;0.00;;;;;;;9.89;100.00;101113.66;4973338;28;20605;-76
2023/05/29 04:50:02;;;;;;;0.77;0.53;;;;;;;9.92;100.00;101120.44;4956322;28;20209;-76
2023/05/29 04:52:27;;;;;;;0.53;0.53;;;;;;;9.95;100.00;101117.13;4973645;28;20714;-76
2023/05/29 04:54:54;;;;;;;1.07;1.07;;;;;;;9.96;100.00;101119.56;4973517;28;20190;-76
2023/05/29 04:57:19;;;;;;;0.10;0.10;;;;;;;9.96;100.00;101126.94;4972959;28;20213;-76
2023/05/29 04:59:44;;;;;;;0.50;0.50;;;;;;;10.04;100.00;101126.31;4973376;28;20213;-76
2023/05/29 05:02:10;;;;;;;0.10;0.10;;;;;;;10.05;100.00;101136.94;4955907;28;20680;-77
2023/05/29 05:04:36;;;;;;;0.17;0.17;;;;;;;10.02;100.00;101134.81;4955932;28;20192;-76
2023/05/29 05:07:03;;;;;;;8.23;0.77;;;;;;;10.04;100.00;101142.69;4955883;28;20715;-76
2023/05/29 05:09:28;;;;;;;0.37;0.37;;;;;;;10.02;100.00;101137.53;4972937;28;20184;-76
2023/05/29 05:11:54;;;;;;;0.40;0.40;;;;;;;9.99;100.00;101129.13;4955826;28;20296;-76
2023/05/29 05:14:20;;;;;;;0.50;0.50;;;;;;;10.02;100.00;101136.72;4973065;28;20652;-76
2023/05/29 05:16:45;;;;;;;0.40;0.37;;;;;;;10.10;100.00;101131.41;4955801;28;20210;-76
2023/05/29 05:19:10;;;;;;;0.53;0.47;;;;;;;10.17;100.00;101135.72;4973001;28;20191;-76
2023/05/29 05:21:35;;;;;;;0.13;0.13;;;;;;;10.28;100.00;101132.63;4972832;28;20182;-76
2023/05/29 05:24:01;;;;;;;1.33;0.30;;;;;;;10.30;100.00;101135.06;4973187;28;20181;-76
2023/05/29 05:26:26;;;;;;;0.60;0.57;;;;;;;10.39;100.00;101146.94;4972817;28;20653;-76
2023/05/29 05:28:51;;;;;;;0.50;0.50;;;;;;;10.47;100.00;101146.31;4972375;28;20185;-76
2023/05/29 05:31:17;;;;;;;2.10;1.20;;;;;;;10.54;100.00;101127.63;4972427;28;20213;-76
2023/05/29 05:33:42;;;;;;;0.00;0.00;;;;;;;10.52;100.00;101131.75;4972744;28;20237;-76
2023/05/29 05:36:08;;;;;;;0.47;0.47;;;;;;;10.53;100.00;101131.44;4955205;28;20281;-76
2023/05/29 05:38:33;;;;;;;0.00;0.00;;;;;;;10.64;100.00;101141.13;4972415;28;20624;-76
2023/05/29 05:40:58;;;;;;;0.77;0.77;;;;;;;10.62;100.00;101131.63;4972472;28;20185;-76
2023/05/29 05:43:26;;;;;;;0.00;0.00;;;;;;;10.62;100.00;101131.63;4955182;28;20268;-74
2023/05/29 05:45:51;;;;;;;0.00;0.00;;;;;;;10.69;100.00;101138.31;4972698;28;20186;-76
2023/05/29 05:48:16;;;;;;;0.13;0.13;;;;;;;10.70;100.00;101142.72;4972011;28;20719;-76
2023/05/29 05:50:42;;;;;;;0.10;0.10;;;;;;;10.77;100.00;101141.53;4955071;28;20264;-76
2023/05/29 05:53:07;;;;;;;13.47;0.93;;;;;;;10.88;100.00;101137.53;4972404;28;20210;-76
2023/05/29 05:55:32;;;;;;;17.53;1.37;;;;;;;11.00;100.00;101146.91;4972393;28;20269;-76
2023/05/29 05:57:58;;;;;;;0.00;0.00;;;;;;;11.12;100.00;101148.38;4971832;28;20182;-76
2023/05/29 06:00:23;;;;;;;0.00;0.00;;;;;;;11.18;100.00;101148.00;4972406;28;20198;-76
2023/05/29 06:02:49;;;;;;;0.00;0.00;;;;;;;11.46;100.00;101143.44;4954898;28;20268;-76
2023/05/29 06:05:14;;;;;;;20.30;0.87;;;;;;;11.59;98.75;101150.06;4972308;28;20189;-76
2023/05/29 06:07:40;;;;;;;0.00;0.00;;;;;;;11.86;97.81;101166.56;4971960;28;20268;-76
2023/05/29 06:10:06;;;;;;;0.00;0.00;;;;;;;11.88;96.32;101147.91;4973308;28;20231;-77
2023/05/29 06:12:31;;;;;;;0.13;0.13;;;;;;;11.95;94.53;101149.41;4972791;28;20206;-76
2023/05/29 06:14:56;;;;;;;0.53;0.43;;;;;;;12.09;91.49;101152.97;4973949;28;20192;-76
2023/05/29 06:17:23;;;;;;;0.00;0.00;;;;;;;12.28;89.18;101152.88;4973923;28;20182;-79
2023/05/29 06:19:48;;;;;;;0.00;0.00;;;;;;;12.44;87.92;101151.44;4974335;28;20178;-81
2023/05/29 06:22:15;;;;;;;0.00;0.00;;;;;;;12.61;87.85;101159.84;4975560;28;20561;-79
2023/05/29 06:24:40;;;;;;;0.33;0.33;;;;;;;12.66;86.54;101157.00;4957113;28;20189;-76
2023/05/29 06:27:06;;;;;;;0.10;0.10;;;;;;;12.55;85.38;101155.59;4968906;28;20189;-75
2023/05/29 06:29:32;;;;;;;0.10;0.00;;;;;;;12.44;85.04;101154.16;4971476;28;20185;-76
2023/05/29 06:31:57;;;;;;;0.00;0.00;;;;;;;12.50;84.74;101148.28;4972289;28;20625;-77
2023/05/29 06:34:22;;;;;;;0.73;0.43;;;;;;;12.51;85.07;101149.91;4972664;28;20197;-77
2023/05/29 06:36:48;;;;;;;0.43;0.43;;;;;;;12.43;85.06;101155.28;4971858;28;20190;-78
2023/05/29 06:39:14;;;;;;;0.27;0.27;;;;;;;12.65;85.39;101162.78;4971805;28;20269;-76
2023/05/29 06:41:39;;;;;;;0.37;0.37;;;;;;;12.59;84.64;101153.88;4972506;28;20196;-77
2023/05/29 06:44:04;;;;;;;1.17;0.50;;;;;;;12.81;85.33;101155.84;4976171;28;20185;-76
2023/05/29 06:46:30;;;;;;;0.00;0.00;;;;;;;12.66;84.11;101150.69;4976121;28;20252;-77
2023/05/29 06:48:55;;;;;;;10.63;0.37;;;;;;;12.70;82.99;101158.00;4958457;28;20186;-77
2023/05/29 06:51:21;;;;;;;0.00;0.00;;;;;;;12.85;82.67;101164.25;4976054;28;20292;-76
2023/05/29 06:53:46;;;;;;;0.00;0.00;;;;;;;12.92;82.93;101159.97;4976097;28;20205;-77
2023/05/29 06:56:11;;;;;;;0.10;0.10;;;;;;;12.92;82.76;101159.97;4975995;28;20667;-76
2023/05/29 06:58:36;;;;;;;0.33;0.33;;;;;;;13.06;81.84;101168.97;4975934;28;20264;-76
2023/05/29 07:01:02;;;;;;;0.00;0.00;;;;;;;13.19;82.23;101174.75;4971926;28;20638;-76
2023/05/29 07:03:28;;;;;;;0.87;0.77;;;;;;;12.97;81.48;101178.25;4959877;28;20706;-75
2023/05/29 07:05:54;;;;;;;0.20;0.20;;;;;;;13.13;81.57;101178.69;4974176;28;20754;-76
2023/05/29 07:08:19;;;;;;;0.00;0.00;;;;;;;13.46;81.35;101191.13;4970193;28;20214;-75
2023/05/29 07:10:45;;;;;;;0.00;0.00;;;;;;;13.54;79.96;101184.84;4967793;28;20547;-76
2023/05/29 07:13:14;;;;;;;9.30;0.97;;;;;;;13.48;78.05;101183.38;4946369;28;20241;-76
2023/05/29 07:15:40;;;;;;;0.00;0.00;;;;;;;13.29;78.90;101179.97;4969182;28;20182;-75
2023/05/29 07:18:05;;;;;;;1.00;0.37;;;;;;;13.37;79.52;101187.47;4948052;28;20601;-76
2023/05/29 07:20:30;;;;;;;7.20;1.20;;;;;;;13.16;79.59;101192.59;4952514;28;20177;-76
2023/05/29 07:22:55;;;;;;;3.47;1.30;;;;;;;13.00;79.38;101183.91;4967470;28;20736;-77
2023/05/29 07:25:21;;;;;;;1.20;0.93;;;;;;;13.04;79.40;101197.84;4969499;28;20181;-76
2023/05/29 07:27:46;;;;;;;0.00;0.00;;;;;;;13.21;79.68;101194.47;4966994;28;20637;-73
2023/05/29 07:30:12;;;;;;;0.00;0.00;;;;;;;13.51;79.78;101201.97;4968541;28;20237;-77
2023/05/29 07:32:37;;;;;;;3.33;0.43;;;;;;;13.28;78.67;101194.81;4966628;28;20245;-76
2023/05/29 07:35:03;;;;;;;5.40;1.77;;;;;;;13.15;79.41;101198.41;4967786;28;20185;-76
2023/05/29 07:37:29;;;;;;;0.00;0.00;;;;;;;13.17;79.73;101199.72;4969019;28;20590;-76
2023/05/29 07:39:55;;;;;;;6.30;0.83;;;;;;;13.40;79.95;101203.31;4951319;28;20182;-76
2023/05/29 07:42:20;;;;;;;0.30;0.30;;;;;;;13.68;80.86;101209.50;4968618;28;20208;-76
2023/05/29 07:44:45;;;;;;;0.30;0.27;;;;;;;13.87;79.78;101204.59;4968785;28;20648;-76
2023/05/29 07:47:11;;;;;;;0.00;0.00;;;;;;;14.05;79.91;101202.75;4950881;28;20273;-76
2023/05/29 07:49:36;;;;;;;0.00;0.00;;;;;;;14.09;78.72;101198.25;4969635;28;20241;-77
2023/05/29 07:52:03;;;;;;;0.10;0.10;;;;;;;14.01;78.10;101185.28;4966998;28;20688;-76
2023/05/29 07:54:28;;;;;;;0.10;0.10;;;;;;;14.30;78.49;101204.78;4952345;28;20577;-77
2023/05/29 07:56:54;;;;;;;1.23;1.23;;;;;;;14.08;76.57;101185.63;4966874;28;20189;-75
2023/05/29 07:59:20;;;;;;;2.27;0.90;;;;;;;14.22;76.88;101185.53;4968728;28;20599;-76
2023/05/29 08:01:47;;;;;;;2.83;2.13;;;;;;;14.08;76.41;101188.38;4968223;28;20189;-76
2023/05/29 08:04:12;;;;;;;0.00;0.00;;;;;;;14.29;76.72;101191.38;4951335;28;20190;-77
2023/05/29 08:06:38;;;;;;;0.10;0.10;;;;;;;14.35;76.11;101186.56;4969848;28;20194;-75
2023/05/29 08:09:04;;;;;;;4.63;0.67;;;;;;;14.38;73.80;101177.66;4967399;28;20225;-77
2023/05/29 08:11:30;;;;;;;2.10;0.20;;;;;;;14.63;73.70;101182.47;4969965;28;20227;-75
2023/05/29 08:13:55;;;;;;;2.33;0.20;;;;;;;14.49;73.30;101176.28;4968215;28;20190;-77
2023/05/29 08:16:22;;;;;;;0.00;0.00;;;;;;;14.39;73.10;101171.03;4969957;28;20239;-77
2023/05/29 08:18:47;;;;;;;0.57;0.10;;;;;;;14.68;74.20;101181.50;4966480;28;20590;-77
2023/05/29 08:21:12;;;;;;;0.03;0.03;;;;;;;14.91;74.28;101194.00;4969967;28;20174;-76
2023/05/29 08:23:38;;;;;;;0.00;0.00;;;;;;;15.01;72.84;101179.09;4968572;28;20625;-76
2023/05/29 08:26:03;;;;;;;0.50;0.50;;;;;;;14.98;72.17;101174.25;4968568;28;20233;-75
2023/05/29 08:28:28;;;;;;;1.47;0.70;;;;;;;14.82;72.27;101171.97;4967866;28;20182;-75
2023/05/29 08:30:54;;;;;;;0.70;0.70;;;;;;;14.96;71.89;101174.56;4965246;28;20211;-77
2023/05/29 08:33:19;;;;;;;1.00;0.40;;;;;;;15.08;70.67;101168.44;4968309;28;20213;-77
2023/05/29 08:35:45;;;;;;;0.23;0.23;;;;;;;14.95;70.78;101175.69;4966815;28;20241;-77
2023/05/29 08:38:10;;;;;;;0.00;0.00;;;;;;;15.22;70.13;101171.00;4951839;28;20268;-77
2023/05/29 08:40:36;;;;;;;1.80;1.00;;;;;;;15.07;69.70;101161.31;4968256;28;20256;-77
2023/05/29 08:43:14;;;;;;;0.00;0.00;;;;;;;15.47;69.99;101179.22;4968437;28;20198;-75
2023/05/29 08:45:43;;;;;;;0.50;0.50;;;;;;;15.70;68.73;101179.88;4967651;28;20189;-77
2023/05/29 08:48:10;;;;;;;0.30;0.20;;;;;;;15.80;67.74;101167.72;4968917;28;20186;-76
2023/05/29 08:50:37;;;;;;;4.63;0.47;;;;;;;15.79;67.69;101174.34;4961686;28;20207;-75
2023/05/29 08:53:03;;;;;;;0.00;0.00;;;;;;;15.54;68.11;101167.72;4955528;28;20211;-77
2023/05/29 08:55:29;;;;;;;1.13;0.60;;;;;;;15.35;68.20;101162.59;4955217;28;20245;-77
2023/05/29 08:57:56;;;;;;;3.20;1.70;;;;;;;15.55;68.12;101176.81;4954886;28;20186;-77
2023/05/29 09:00:22;;;;;;;0.00;0.00;;;;;;;15.55;69.19;101174.84;4955326;28;20198;-77
2023/05/29 09:02:47;;;;;;;0.40;0.40;;;;;;;15.80;67.81;101166.91;4954956;28;20684;-77
2023/05/29 09:05:13;;;;;;;0.47;0.47;;;;;;;15.76;67.47;101169.47;4955265;28;20197;-77
2023/05/29 09:07:39;;;;;;;0.00;0.00;;;;;;;15.54;67.76;101175.19;4962270;28;20181;-75
2023/05/29 09:10:09;;;;;;;0.37;0.37;;;;;;;15.96;68.01;101188.06;4973973;28;20624;-77
2023/05/29 09:12:35;;;;;;;1.10;1.07;;;;;;;15.87;66.71;101165.22;4974232;28;20206;-77
2023/05/29 09:15:01;;;;;;;0.00;0.00;;;;;;;15.74;67.08;101172.56;4956948;28;20276;-77
2023/05/29 09:17:33;;;;;;;0.00;0.00;;;;;;;15.89;67.18;101182.25;4974960;28;20196;-76
2023/05/29 09:20:00;;;;;;;0.47;0.27;;;;;;;15.95;66.34;101163.59;4959666;28;20328;-75
2023/05/29 09:22:25;;;;;;;0.40;0.23;;;;;;;15.85;66.34;101163.94;4974843;28;20291;-76
2023/05/29 09:24:51;;;;;;;3.87;1.03;;;;;;;16.02;66.58;101169.41;4958588;28;20238;-75
2023/05/29 09:27:17;;;;;;;12.53;1.37;;;;;;;16.06;66.20;101168.44;4974249;28;20267;-78
2023/05/29 09:29:46;;;;;;;1.90;0.93;;;;;;;15.95;66.46;101172.69;4958100;28;20209;-80
2023/05/29 09:32:19;;;;;;;0.57;0.57;;;;;;;16.04;66.21;101170.69;4957493;28;20225;-76
2023/05/29 09:34:45;;;;;;;0.00;0.00;;;;;;;16.26;66.06;101177.91;4975094;28;20178;-78
2023/05/29 09:37:12;;;;;;;0.00;0.00;;;;;;;16.18;64.82;101164.13;4974898;28;20209;-78
2023/05/29 09:39:51;;;;;;;5.20;1.80;;;;;;;16.25;64.92;101172.72;4975127;28;20580;-78
2023/05/29 09:42:16;;;;;;;1.60;1.07;;;;;;;16.06;65.35;101175.88;4974547;28;20268;-78
2023/05/29 09:44:44;;;;;;;0.00;0.00;;;;;;;16.33;65.56;101175.41;4974932;28;20655;-77
2023/05/29 09:47:15;;;;;;;0.67;0.67;;;;;;;16.54;64.70;101192.03;4969627;28;20763;-76
2023/05/29 09:49:41;;;;;;;0.00;0.00;;;;;;;16.84;65.02;101194.81;4972121;28;20216;-77
2023/05/29 09:52:08;;;;;;;0.00;0.00;;;;;;;16.98;64.21;101187.06;4975135;28;20638;-79
2023/05/29 09:54:35;;;;;;;0.20;0.20;;;;;;;17.19;63.83;101187.06;4975489;28;20228;-78
2023/05/29 09:57:03;;;;;;;0.00;0.00;;;;;;;17.46;64.62;101180.97;4975742;28;20200;-79
2023/05/29 09:59:29;;;;;;;0.43;0.37;;;;;;;17.45;62.11;101159.19;4966137;28;20185;-78
2023/05/29 10:02:03;;;;;;;0.03;0.03;;;;;;;17.13;61.74;101149.75;4957119;28;20217;-83
2023/05/29 10:04:34;;;;;;;0.00;0.00;;;;;;;16.80;62.08;101147.75;4957033;28;20289;-78
2023/05/29 10:07:06;;;;;;;6.70;0.30;;;;;;;17.02;62.25;101156.81;4974783;28;20214;-80
2023/05/29 10:09:34;;;;;;;0.43;0.30;;;;;;;17.04;61.43;101154.53;4974246;28;20196;-75
2023/05/29 10:12:03;;;;;;;1.10;0.70;;;;;;;17.19;62.29;101157.47;4973193;28;20209;-83
2023/05/29 10:14:32;;;;;;;0.00;0.00;;;;;;;17.24;61.48;101148.19;4972730;28;20245;-76
2023/05/29 10:17:01;;;;;;;0.00;0.00;;;;;;;16.91;61.67;101146.19;4970431;28;20272;-76
2023/05/29 10:19:29;;;;;;;7.53;0.47;;;;;;;16.62;62.33;101157.25;4972447;28;20667;-76
2023/05/29 10:21:56;;;;;;;1.50;0.50;;;;;;;16.95;62.62;101154.63;4972833;28;20253;-77
2023/05/29 10:24:21;;;;;;;0.67;0.43;;;;;;;17.09;62.40;101149.63;4972723;28;20193;-81
2023/05/29 10:26:50;;;;;;;0.10;0.10;;;;;;;16.96;60.81;101150.72;4972658;28;20186;-75
2023/05/29 10:29:27;;;;;;;0.33;0.30;;;;;;;17.07;60.58;101146.41;4972085;28;20189;-76
2023/05/29 10:32:24;;;;;;;0.00;0.00;;;;;;;17.47;60.66;101143.88;4971902;28;20220;-77
2023/05/29 10:34:58;;;;;;;0.40;0.27;;;;;;;17.38;59.61;101143.19;4973100;28;20178;-75
2023/05/29 10:37:40;;;;;;;0.00;0.00;;;;;;;17.56;60.08;101138.28;4966506;28;20194;-77
2023/05/29 10:40:12;;;;;;;6.20;0.70;;;;;;;17.44;59.04;101132.72;4966597;28;20239;-76
2023/05/29 10:42:48;;;;;;;1.07;0.37;;;;;;;17.27;58.28;101121.84;4973288;28;20241;-75
2023/05/29 10:45:39;;;;;;;0.00;0.00;;;;;;;17.35;59.17;101126.47;4965348;28;20202;-77
2023/05/29 10:48:10;;;;;;;0.23;0.20;;;;;;;17.51;58.15;101119.16;4955851;28;20207;-77
2023/05/29 10:50:36;;;;;;;0.00;0.00;;;;;;;17.43;58.19;101117.28;4973180;28;20710;-77
2023/05/29 10:53:02;;;;;;;0.00;0.00;;;;;;;17.66;58.38;101121.28;4973219;28;20279;-76
2023/05/29 10:55:35;;;;;;;0.47;0.30;;;;;;;17.82;57.81;101118.69;4969943;28;20716;-77
2023/05/29 10:58:08;;;;;;;2.03;1.00;;;;;;;17.53;56.62;101116.88;4952706;28;20181;-78
2023/05/29 11:00:41;;;;;;;0.00;0.00;;;;;;;17.55;56.30;101120.09;4967197;28;20197;-78
2023/05/29 11:03:07;;;;;;;0.87;0.20;;;;;;;17.58;57.30;101122.16;4974279;28;20229;-78
2023/05/29 11:05:33;;;;;;;0.33;0.33;;;;;;;17.68;56.59;101115.41;4974895;28;20185;-78
2023/05/29 11:08:00;;;;;;;1.27;0.43;;;;;;;17.68;56.26;101110.72;4974337;28;20196;-78
2023/05/29 11:10:47;;;;;;;2.43;0.50;;;;;;;17.44;55.80;101105.91;4957114;28;20214;-76
2023/05/29 11:13:36;;;;;;;0.00;0.00;;;;;;;18.18;57.12;101115.09;4974465;28;20209;-78
2023/05/29 11:16:09;;;;;;;0.03;0.03;;;;;;;18.58;58.28;101123.50;4962520;28;20205;-78
2023/05/29 11:18:44;;;;;;;0.00;0.00;;;;;;;18.70;55.65;101109.66;4967553;28;20197;-78
2023/05/29 11:21:34;;;;;;;0.00;0.00;;;;;;;18.38;54.56;101096.78;4974416;28;20200;-78